createdAt,value
2018-07-07T00:00:26.355Z,15.70
2018-07-07T00:02:55.583Z,15.60
2018-07-07T00:05:24.800Z,15.60
2018-07-07T00:07:54.041Z,15.60
2018-07-07T00:10:23.242Z,15.60
2018-07-07T00:12:52.430Z,15.50
2018-07-07T00:15:22.139Z,15.50
2018-07-07T00:17:51.459Z,15.50
2018-07-07T00:20:20.722Z,15.40
2018-07-07T00:22:49.889Z,15.40
2018-07-07T00:25:21.234Z,15.30
2018-07-07T00:27:51.139Z,15.30
2018-07-07T00:30:20.582Z,15.30
2018-07-07T00:32:49.826Z,15.30
2018-07-07T00:35:19.092Z,15.20
2018-07-07T00:37:48.309Z,15.20
2018-07-07T00:40:17.503Z,15.10
2018-07-07T00:42:46.690Z,15.10
2018-07-07T00:45:15.869Z,15.00
2018-07-07T00:47:45.063Z,15.00
2018-07-07T00:52:43.202Z,15.00
2018-07-07T00:55:12.462Z,15.00
2018-07-07T00:57:41.658Z,15.00
2018-07-07T01:00:10.908Z,15.00
2018-07-07T01:02:40.127Z,15.00
2018-07-07T01:05:25.090Z,14.90
2018-07-07T01:07:54.449Z,14.90
2018-07-07T01:10:23.666Z,14.90
2018-07-07T01:15:21.858Z,14.90
2018-07-07T01:17:51.075Z,14.80
2018-07-07T01:20:20.335Z,14.80
2018-07-07T01:22:49.570Z,14.80
2018-07-07T01:27:47.741Z,14.80
2018-07-07T01:30:17.003Z,14.70
2018-07-07T01:32:46.239Z,14.70
2018-07-07T01:35:15.443Z,14.70
2018-07-07T01:37:44.633Z,14.60
2018-07-07T01:40:13.883Z,14.60
2018-07-07T01:42:43.066Z,14.60
2018-07-07T01:47:41.256Z,14.50
2018-07-07T01:50:10.617Z,14.50
2018-07-07T01:52:39.810Z,14.50
2018-07-07T01:55:09.046Z,14.50
2018-07-07T01:57:38.233Z,14.40
2018-07-07T02:00:07.468Z,14.50
2018-07-07T02:02:36.703Z,14.50
2018-07-07T02:05:05.951Z,14.40
2018-07-07T02:07:35.150Z,14.40
2018-07-07T02:10:04.379Z,14.40
2018-07-07T02:12:33.606Z,14.40
2018-07-07T02:15:02.824Z,14.40
2018-07-07T02:17:32.131Z,14.30
2018-07-07T02:20:01.364Z,14.30
2018-07-07T02:22:30.578Z,14.30
2018-07-07T02:24:59.808Z,14.30
2018-07-07T02:27:29.014Z,14.30
2018-07-07T02:29:58.200Z,14.30
2018-07-07T02:32:27.443Z,14.20
2018-07-07T02:34:56.655Z,14.30
2018-07-07T02:37:25.897Z,14.30
2018-07-07T02:39:55.197Z,14.30
2018-07-07T02:42:24.403Z,14.30
2018-07-07T02:44:53.603Z,14.30
2018-07-07T02:47:22.839Z,14.40
2018-07-07T02:49:52.071Z,14.40
2018-07-07T02:52:21.303Z,14.40
2018-07-07T02:54:50.520Z,14.40
2018-07-07T02:57:19.820Z,14.40
2018-07-07T03:02:18.020Z,14.50
2018-07-07T03:04:47.212Z,14.50
2018-07-07T03:07:16.459Z,14.50
2018-07-07T03:09:45.674Z,14.60
2018-07-07T03:12:14.859Z,14.60
2018-07-07T03:14:44.055Z,14.60
2018-07-07T03:17:13.275Z,14.60
2018-07-07T03:19:42.461Z,14.70
2018-07-07T03:22:11.763Z,14.70
2018-07-07T03:24:40.943Z,14.70
2018-07-07T03:27:10.152Z,14.70
2018-07-07T03:29:39.398Z,14.70
2018-07-07T03:32:08.607Z,14.70
2018-07-07T03:34:37.827Z,14.70
2018-07-07T03:37:07.062Z,14.60
2018-07-07T03:39:36.270Z,14.60
2018-07-07T03:42:05.590Z,14.60
2018-07-07T03:44:34.734Z,14.60
2018-07-07T03:47:03.940Z,14.60
2018-07-07T03:49:33.159Z,14.60
2018-07-07T03:52:02.368Z,14.60
2018-07-07T03:54:31.606Z,14.70
2018-07-07T03:57:01.422Z,14.80
2018-07-07T03:59:30.614Z,14.90
2018-07-07T04:01:59.855Z,15.00
2018-07-07T04:04:29.087Z,15.20
2018-07-07T04:06:58.273Z,15.30
2018-07-07T04:09:27.518Z,15.40
2018-07-07T04:11:56.722Z,15.40
2018-07-07T04:14:26.023Z,15.50
2018-07-07T04:16:55.283Z,15.50
2018-07-07T04:21:53.553Z,15.80
2018-07-07T04:24:22.779Z,15.90
2018-07-07T04:26:52.010Z,16.00
2018-07-07T04:29:21.390Z,16.10
2018-07-07T04:31:50.639Z,16.20
2018-07-07T04:34:19.896Z,16.30
2018-07-07T04:36:49.136Z,16.50
2018-07-07T04:39:18.383Z,16.70
2018-07-07T04:41:47.594Z,16.80
2018-07-07T04:44:16.794Z,16.90
2018-07-07T04:46:46.003Z,17.00
2018-07-07T04:49:15.303Z,17.00
2018-07-07T04:51:44.506Z,17.10
2018-07-07T04:54:13.775Z,17.40
2018-07-07T04:56:42.971Z,17.70
2018-07-07T05:01:41.267Z,17.90
2018-07-07T05:04:10.495Z,18.00
2018-07-07T05:09:08.729Z,18.20
2018-07-07T05:14:07.110Z,18.60
2018-07-07T05:16:36.298Z,19.00
2018-07-07T05:19:05.551Z,19.20
2018-07-07T05:21:34.802Z,19.50
2018-07-07T05:24:04.028Z,20.30
2018-07-07T05:26:33.365Z,21.60
2018-07-07T05:29:02.674Z,23.10
2018-07-07T05:31:31.946Z,24.10
2018-07-07T05:36:30.212Z,24.30
2018-07-07T05:38:59.429Z,23.80
2018-07-07T05:41:28.651Z,24.20
2018-07-07T05:43:57.907Z,24.90
2018-07-07T05:46:27.170Z,25.80
2018-07-07T05:48:56.523Z,26.20
2018-07-07T05:51:25.875Z,27.00
2018-07-07T05:53:55.320Z,27.10
2018-07-07T05:56:24.655Z,27.70
2018-07-07T05:58:53.988Z,28.40
2018-07-07T06:01:23.607Z,28.50
2018-07-07T06:03:52.827Z,28.50
2018-07-07T06:06:22.078Z,28.90
2018-07-07T06:08:51.315Z,29.10
2018-07-07T06:11:20.522Z,29.50
2018-07-07T06:13:49.882Z,29.00
2018-07-07T06:16:19.137Z,28.90
2018-07-07T06:18:48.398Z,28.60
2018-07-07T06:21:17.634Z,28.80
2018-07-07T06:23:46.895Z,28.70
2018-07-07T06:26:16.180Z,27.70
2018-07-07T06:28:45.479Z,26.70
2018-07-07T06:31:14.706Z,25.70
2018-07-07T06:33:44.110Z,25.10
2018-07-07T06:36:13.412Z,24.30
2018-07-07T06:38:42.914Z,23.90
2018-07-07T06:41:12.239Z,23.70
2018-07-07T06:43:41.479Z,23.60
2018-07-07T06:46:10.810Z,24.00
2018-07-07T06:48:40.036Z,24.40
2018-07-07T06:51:09.287Z,24.60
2018-07-07T06:53:38.712Z,24.40
2018-07-07T06:56:08.029Z,24.50
2018-07-07T06:58:37.262Z,24.90
2018-07-07T07:01:06.539Z,25.30
2018-07-07T07:03:35.757Z,25.30
2018-07-07T07:06:05.065Z,25.30
2018-07-07T07:08:34.346Z,25.10
2018-07-07T07:11:03.590Z,25.00
2018-07-07T07:13:32.863Z,24.80
2018-07-07T07:16:02.212Z,24.70
2018-07-07T07:18:31.434Z,24.70
2018-07-07T07:21:00.655Z,24.60
2018-07-07T07:23:29.886Z,24.40
2018-07-07T07:25:59.214Z,24.20
2018-07-07T07:28:28.507Z,24.00
2018-07-07T07:30:57.848Z,24.00
2018-07-07T07:33:27.082Z,24.10
2018-07-07T07:35:56.314Z,24.30
2018-07-07T07:38:25.554Z,24.40
2018-07-07T07:40:54.767Z,24.60
2018-07-07T07:43:23.978Z,24.70
2018-07-07T07:45:54.281Z,24.90
2018-07-07T07:48:24.116Z,24.90
2018-07-07T07:50:53.268Z,24.80
2018-07-07T07:53:22.553Z,24.60
2018-07-07T07:55:51.902Z,24.40
2018-07-07T07:58:21.130Z,24.50
2018-07-07T08:00:50.401Z,24.50
2018-07-07T08:03:19.734Z,24.50
2018-07-07T08:05:48.973Z,24.40
2018-07-07T08:08:18.567Z,24.50
2018-07-07T08:10:48.710Z,24.50
2018-07-07T08:15:47.461Z,24.70
2018-07-07T08:18:18.241Z,24.70
2018-07-07T08:20:48.578Z,25.00
2018-07-07T08:23:17.787Z,25.00
2018-07-07T08:25:47.120Z,25.10
2018-07-07T08:28:16.469Z,25.20
2018-07-07T08:30:45.803Z,25.20
2018-07-07T08:33:15.089Z,25.40
2018-07-07T08:40:44.974Z,25.70
2018-07-07T08:43:16.774Z,25.50
2018-07-07T08:45:46.562Z,25.50
2018-07-07T08:48:16.597Z,25.20
2018-07-07T08:50:46.827Z,25.30
2018-07-07T08:53:16.257Z,25.10
2018-07-07T08:55:46.391Z,25.20
2018-07-07T08:58:15.784Z,25.40
2018-07-07T09:00:45.756Z,25.80
2018-07-07T09:03:15.036Z,25.80
2018-07-07T09:05:44.445Z,25.80
2018-07-07T09:08:14.613Z,25.90
2018-07-07T09:10:44.213Z,26.00
2018-07-07T09:13:13.559Z,26.20
2018-07-07T09:15:42.878Z,26.20
2018-07-07T09:18:12.200Z,26.40
2018-07-07T09:20:41.451Z,26.40
2018-07-07T09:23:10.805Z,26.50
2018-07-07T09:25:40.103Z,26.40
2018-07-07T09:28:09.338Z,26.50
2018-07-07T09:30:38.624Z,26.60
2018-07-07T09:35:37.008Z,27.20
2018-07-07T09:38:06.308Z,27.00
2018-07-07T09:40:35.596Z,26.60
2018-07-07T09:43:04.877Z,26.50
2018-07-07T09:45:34.113Z,26.20
2018-07-07T09:48:03.596Z,26.00
2018-07-07T09:50:33.011Z,25.90
2018-07-07T09:53:02.259Z,26.00
2018-07-07T09:55:31.559Z,26.20
2018-07-07T10:00:35.293Z,26.30
2018-07-07T10:03:04.590Z,26.40
2018-07-07T10:05:33.898Z,26.00
2018-07-07T10:08:03.226Z,25.80
2018-07-07T10:10:32.674Z,25.80
2018-07-07T10:13:01.983Z,26.00
2018-07-07T10:15:31.257Z,26.20
2018-07-07T10:18:00.553Z,26.40
2018-07-07T10:20:29.826Z,26.60
2018-07-07T10:22:59.119Z,27.10
2018-07-07T10:25:28.403Z,27.50
2018-07-07T10:27:57.700Z,27.80
2018-07-07T10:30:27.060Z,27.80
2018-07-07T10:32:56.371Z,27.50
2018-07-07T10:35:25.669Z,27.50
2018-07-07T10:37:54.959Z,27.30
2018-07-07T10:40:24.242Z,27.10
2018-07-07T10:42:53.479Z,27.30
2018-07-07T10:45:22.767Z,27.30
2018-07-07T10:47:51.958Z,27.30
2018-07-07T10:50:21.218Z,27.20
2018-07-07T10:52:50.508Z,27.30
2018-07-07T10:55:19.787Z,27.00
2018-07-07T10:57:49.081Z,26.70
2018-07-07T11:00:18.393Z,26.70
2018-07-07T11:02:47.648Z,26.70
2018-07-07T11:05:16.887Z,26.90
2018-07-07T11:07:46.201Z,26.80
2018-07-07T11:10:15.593Z,27.00
2018-07-07T11:12:44.967Z,27.00
2018-07-07T11:15:14.284Z,26.90
2018-07-07T11:17:43.593Z,26.90
2018-07-07T11:20:12.843Z,27.00
2018-07-07T11:22:42.091Z,27.10
2018-07-07T11:25:11.332Z,27.50
2018-07-07T11:27:40.622Z,27.70
2018-07-07T11:30:10.008Z,27.90
2018-07-07T11:32:39.276Z,27.70
2018-07-07T11:35:08.518Z,27.30
2018-07-07T11:37:37.804Z,26.90
2018-07-07T11:40:07.131Z,26.60
2018-07-07T11:42:36.455Z,26.60
2018-07-07T11:45:05.785Z,26.70
2018-07-07T11:47:35.121Z,26.90
2018-07-07T11:50:04.548Z,27.20
2018-07-07T11:52:33.874Z,27.30
2018-07-07T11:55:03.097Z,27.20
2018-07-07T11:57:32.359Z,27.40
2018-07-07T12:00:01.722Z,27.80
2018-07-07T12:02:31.032Z,28.10
2018-07-07T12:05:00.303Z,28.40
2018-07-07T12:07:29.609Z,28.40
2018-07-07T12:09:58.953Z,28.00
2018-07-07T12:12:28.267Z,27.50
2018-07-07T12:14:57.602Z,27.20
2018-07-07T12:17:27.004Z,27.00
2018-07-07T12:19:56.263Z,27.10
2018-07-07T12:22:25.783Z,27.20
2018-07-07T12:24:55.150Z,27.00
2018-07-07T12:27:24.423Z,27.10
2018-07-07T12:29:53.802Z,27.10
2018-07-07T12:34:52.278Z,26.90
2018-07-07T12:37:21.643Z,26.90
2018-07-07T12:42:20.221Z,26.70
2018-07-07T12:44:49.524Z,26.30
2018-07-07T12:47:18.790Z,26.10
2018-07-07T12:52:17.228Z,26.30
2018-07-07T12:54:46.539Z,26.70
2018-07-07T12:57:15.810Z,27.20
2018-07-07T12:59:45.281Z,27.80
2018-07-07T13:02:14.563Z,28.10
2018-07-07T13:04:43.886Z,28.40
2018-07-07T13:07:13.149Z,28.00
2018-07-07T13:09:42.524Z,27.90
2018-07-07T13:12:11.863Z,27.90
2018-07-07T13:14:41.905Z,28.00
2018-07-07T13:17:11.882Z,27.90
2018-07-07T13:19:41.284Z,28.30
2018-07-07T13:22:10.597Z,28.60
2018-07-07T13:24:40.747Z,29.10
2018-07-07T13:27:10.313Z,29.20
2018-07-07T13:29:39.609Z,29.30
2018-07-07T13:32:09.875Z,29.20
2018-07-07T13:34:40.050Z,28.70
2018-07-07T13:37:09.368Z,28.40
2018-07-07T13:39:39.987Z,28.00
2018-07-07T13:42:10.759Z,27.70
2018-07-07T13:44:40.461Z,27.40
2018-07-07T13:47:10.045Z,27.20
2018-07-07T13:49:39.741Z,27.20
2018-07-07T13:52:09.101Z,27.40
2018-07-07T13:54:38.399Z,27.80
2018-07-07T13:57:07.758Z,28.20
2018-07-07T14:02:06.330Z,28.00
2018-07-07T14:04:35.679Z,27.50
2018-07-07T14:07:05.148Z,27.40
2018-07-07T14:09:34.672Z,27.60
2018-07-07T14:12:06.304Z,27.60
2018-07-07T14:14:36.343Z,27.50
2018-07-07T14:17:08.000Z,27.60
2018-07-07T14:19:40.247Z,27.70
2018-07-07T14:22:09.781Z,27.90
2018-07-07T14:27:11.831Z,27.90
2018-07-07T14:29:43.292Z,28.00
2018-07-07T14:32:14.986Z,28.40
2018-07-07T14:34:47.499Z,28.50
2018-07-07T14:37:17.440Z,28.80
2018-07-07T14:39:58.364Z,28.90
2018-07-07T14:42:44.179Z,28.70
2018-07-07T14:45:34.939Z,28.60
2018-07-07T14:48:08.978Z,28.70
2018-07-07T14:50:43.012Z,28.80
2018-07-07T14:53:15.022Z,28.80
2018-07-07T14:55:46.436Z,28.70
2018-07-07T15:00:50.330Z,28.70
2018-07-07T15:03:22.188Z,28.90
2018-07-07T15:05:53.090Z,28.90
2018-07-07T15:08:23.836Z,28.90
2018-07-07T15:10:53.226Z,29.00
2018-07-07T15:13:22.483Z,29.20
2018-07-07T15:15:51.797Z,29.20
2018-07-07T15:18:21.778Z,29.00
2018-07-07T15:20:51.786Z,28.90
2018-07-07T15:23:23.996Z,29.00
2018-07-07T15:25:57.490Z,29.00
2018-07-07T15:28:26.887Z,28.90
2018-07-07T15:30:56.241Z,28.80
2018-07-07T15:33:25.610Z,28.70
2018-07-07T15:35:54.971Z,28.40
2018-07-07T15:38:24.306Z,28.10
2018-07-07T15:40:53.685Z,27.90
2018-07-07T15:43:23.107Z,27.90
2018-07-07T15:45:52.470Z,27.80
2018-07-07T15:48:21.784Z,27.60
2018-07-07T15:50:51.155Z,27.70
2018-07-07T15:53:20.530Z,27.80
2018-07-07T15:55:49.897Z,27.80
2018-07-07T15:58:19.302Z,27.80
2018-07-07T16:00:48.745Z,27.90
2018-07-07T16:03:18.066Z,27.90
2018-07-07T16:05:47.425Z,27.80
2018-07-07T16:08:16.795Z,27.50
2018-07-07T16:10:46.151Z,27.20
2018-07-07T16:13:15.565Z,26.90
2018-07-07T16:15:44.867Z,26.70
2018-07-07T16:18:14.189Z,26.70
2018-07-07T16:20:46.867Z,26.90
2018-07-07T16:23:33.463Z,26.90
2018-07-07T16:29:21.862Z,26.90
2018-07-07T16:32:18.032Z,27.00
2018-07-07T16:35:41.437Z,27.30
2018-07-07T16:38:14.595Z,27.60
2018-07-07T16:40:45.232Z,27.70
2018-07-07T16:43:16.793Z,27.60
2018-07-07T16:45:48.588Z,27.50
2018-07-07T16:48:19.281Z,27.50
2018-07-07T16:50:48.574Z,27.50
2018-07-07T16:53:17.958Z,27.50
2018-07-07T16:55:48.301Z,27.70
2018-07-07T16:58:17.616Z,27.80
2018-07-07T17:00:47.065Z,27.80
2018-07-07T17:03:16.424Z,28.30
2018-07-07T17:05:45.760Z,28.50
2018-07-07T17:08:15.788Z,28.50
2018-07-07T17:10:45.389Z,28.80
2018-07-07T17:13:14.999Z,28.90
2018-07-07T17:15:44.446Z,29.00
2018-07-07T17:18:13.721Z,28.90
2018-07-07T17:20:42.951Z,29.00
2018-07-07T17:23:12.218Z,28.80
2018-07-07T17:25:41.489Z,28.40
2018-07-07T17:28:10.860Z,28.10
2018-07-07T17:30:40.208Z,27.70
2018-07-07T17:33:09.467Z,27.20
2018-07-07T17:35:38.734Z,26.80
2018-07-07T17:38:07.981Z,26.40
2018-07-07T17:40:37.375Z,26.00
2018-07-07T17:43:06.675Z,25.90
2018-07-07T17:45:36.303Z,25.70
2018-07-07T17:48:05.637Z,25.60
2018-07-07T17:50:34.947Z,25.50
2018-07-07T17:53:04.726Z,25.40
2018-07-07T17:55:34.095Z,25.20
2018-07-07T17:58:03.499Z,25.00
2018-07-07T18:00:32.906Z,24.90
2018-07-07T18:03:03.015Z,24.80
2018-07-07T18:05:32.379Z,24.60
2018-07-07T18:10:31.051Z,24.40
2018-07-07T18:13:00.415Z,24.20
2018-07-07T18:15:37.468Z,24.10
2018-07-07T18:18:10.815Z,24.00
2018-07-07T18:20:41.569Z,23.80
2018-07-07T18:23:12.301Z,23.70
2018-07-07T18:25:46.622Z,23.60
2018-07-07T18:28:16.902Z,23.50
2018-07-07T18:30:46.995Z,23.40
2018-07-07T18:33:18.219Z,23.40
2018-07-07T18:35:48.323Z,23.30
2018-07-07T18:38:18.997Z,23.30
2018-07-07T18:40:50.097Z,23.30
2018-07-07T18:43:20.171Z,23.20
2018-07-07T18:45:50.972Z,23.10
2018-07-07T18:48:20.327Z,23.00
2018-07-07T18:50:49.696Z,23.00
2018-07-07T18:55:48.132Z,22.80
2018-07-07T19:00:46.461Z,22.60
2018-07-07T19:03:15.724Z,22.60
2018-07-07T19:05:45.769Z,22.50
2018-07-07T19:08:15.148Z,22.40
2018-07-07T19:10:44.509Z,22.30
2018-07-07T19:13:13.822Z,22.30
2018-07-07T19:15:46.389Z,22.20
2018-07-07T19:18:16.092Z,22.20
2018-07-07T19:20:50.692Z,22.10
2018-07-07T19:23:25.312Z,22.00
2018-07-07T19:25:59.888Z,22.00
2018-07-07T19:28:29.225Z,21.90
2018-07-07T19:30:58.435Z,21.90
2018-07-07T19:33:32.919Z,21.80
2018-07-07T19:36:07.373Z,21.80
2018-07-07T19:38:36.646Z,21.80
2018-07-07T19:43:35.108Z,21.70
2018-07-07T19:46:04.441Z,21.70
2018-07-07T19:48:33.783Z,21.60
2018-07-07T19:51:03.091Z,21.60
2018-07-07T19:53:32.380Z,21.60
2018-07-07T19:56:01.785Z,21.50
2018-07-07T19:58:31.150Z,21.50
2018-07-07T20:01:00.447Z,21.40
2018-07-07T20:03:29.758Z,21.50
2018-07-07T20:05:59.083Z,21.50
2018-07-07T20:08:28.369Z,21.50
2018-07-07T20:10:57.641Z,21.40
2018-07-07T20:13:26.902Z,21.40
2018-07-07T20:16:17.288Z,21.40
2018-07-07T20:19:16.476Z,21.30
2018-07-07T20:22:04.360Z,21.30
2018-07-07T20:24:39.587Z,21.30
2018-07-07T20:27:14.853Z,21.20
2018-07-07T20:29:44.263Z,21.20
2018-07-07T20:32:18.835Z,21.20
2018-07-07T20:34:48.103Z,21.20
2018-07-07T20:37:17.399Z,21.20
2018-07-07T20:39:46.761Z,21.20
2018-07-07T20:42:16.037Z,21.30
2018-07-07T20:44:45.341Z,21.30
2018-07-07T20:47:14.640Z,21.30
2018-07-07T20:49:43.874Z,21.20
2018-07-07T20:54:42.461Z,21.20
2018-07-07T20:57:11.714Z,21.20
2018-07-07T20:59:40.963Z,21.10
2018-07-07T21:02:10.209Z,21.10
2018-07-07T21:04:39.366Z,21.00
2018-07-07T21:07:08.627Z,21.00
2018-07-07T21:09:37.829Z,21.00
2018-07-07T21:12:07.195Z,20.90
2018-07-07T21:14:36.445Z,20.90
2018-07-07T21:17:05.830Z,20.80
2018-07-07T21:19:35.267Z,20.70
2018-07-07T21:24:33.521Z,20.40
2018-07-07T21:27:02.757Z,20.30
2018-07-07T21:29:31.975Z,20.30
2018-07-07T21:32:01.229Z,20.20
2018-07-07T21:34:30.570Z,20.10
2018-07-07T21:36:59.916Z,20.00
2018-07-07T21:39:29.166Z,20.00
2018-07-07T21:41:58.736Z,19.90
2018-07-07T21:44:28.046Z,19.80
2018-07-07T21:49:26.359Z,19.70
2018-07-07T21:51:55.747Z,19.60
2018-07-07T21:54:24.986Z,19.50
2018-07-07T21:56:55.750Z,19.50
2018-07-07T21:59:25.410Z,19.40
2018-07-07T22:02:00.280Z,19.30
2018-07-07T22:04:35.724Z,19.30
2018-07-07T22:07:12.131Z,19.20
2018-07-07T22:09:41.893Z,19.10
2018-07-07T22:12:11.116Z,19.10
2018-07-07T22:14:40.451Z,19.10
2018-07-07T22:17:09.702Z,19.00
2018-07-07T22:19:38.907Z,19.00
2018-07-07T22:22:09.263Z,18.90
2018-07-07T22:24:39.382Z,18.90
2018-07-07T22:27:09.833Z,18.80
2018-07-07T22:29:39.051Z,18.80
2018-07-07T22:32:13.678Z,18.80
2018-07-07T22:34:43.094Z,18.70
2018-07-07T22:37:12.309Z,18.70
2018-07-07T22:39:43.535Z,18.70
2018-07-07T22:42:15.844Z,18.70
2018-07-07T22:44:46.303Z,18.70
2018-07-07T22:47:15.627Z,18.70
2018-07-07T22:49:44.910Z,18.60
2018-07-07T22:52:14.201Z,18.60
2018-07-07T22:54:43.505Z,18.50
2018-07-07T22:57:12.711Z,18.50
2018-07-07T22:59:41.904Z,18.50
2018-07-07T23:02:11.127Z,18.50
2018-07-07T23:04:40.371Z,18.50
2018-07-07T23:07:09.575Z,18.50
2018-07-07T23:09:38.795Z,18.50
2018-07-07T23:12:08.016Z,18.50
2018-07-07T23:14:37.246Z,18.50
2018-07-07T23:17:06.439Z,18.50
2018-07-07T23:19:35.687Z,18.40
2018-07-07T23:22:04.891Z,18.40
2018-07-07T23:24:34.151Z,18.40
2018-07-07T23:27:03.443Z,18.30
2018-07-07T23:29:32.663Z,18.30
2018-07-07T23:32:01.884Z,18.30
2018-07-07T23:34:31.196Z,18.30
2018-07-07T23:37:00.435Z,18.30
2018-07-07T23:39:29.659Z,18.20
2018-07-07T23:41:58.866Z,18.20
2018-07-07T23:44:28.085Z,18.10
2018-07-07T23:46:57.326Z,18.10
2018-07-07T23:49:26.532Z,18.10
2018-07-07T23:51:55.706Z,18.10
2018-07-07T23:54:24.942Z,18.00
2018-07-07T23:56:54.194Z,18.00
2018-07-07T23:59:23.406Z,17.90
